»·PEaware :: AAY513 KIWA-KPVU

AAY513 :: KIWA-KPVU

FLIGHT INFORMATION

Flight Status: Arrived
Operator:
Allegiant Air
More flights by this operator :: More flights under this callsign
Pilot: Chandler S. (807)
Aircraft: AIRBUS A320
(A320)
More flights by this aircraft type
Origin: KIWA Williams Gateway
United States
Destination: KPVU Provo Mun
United States
More flights between these airports :: More routes between these airports
Route: SNOBL6 GCN BCE J11 FFU
File this flight plan on PilotEdge
Remarks:
Altitude:
(Current/Filed)
34,000ft
Speed:
(Current/Filed)
400kts
Departed: 02-Jul-20 08:23 AM
Arrived: 02-Jul-20 09:32 AM
Distance/Time
Traveled:
415nm/1:08
Distance/Time
To Go:
Arrived

Flight Plot

Page will automatically refresh every two minutes.

Flight plan parsing failed; only flown route is shown


Map Options




Map Legend


Flown Route
Filed Route
Departure Airport
Arrival Airport
Navaid (VOR, NDB)
Fix

Horizontal Profiles

Position Reports

Time Latitude Longitude Heading Altitude Ground
Speed
02-Jul-20 07:58 33.306341 -111.668218 270 1388ft 0kts
02-Jul-20 07:59 33.306341 -111.668218 270 1388ft 0kts
02-Jul-20 08:00 33.306341 -111.668218 270 1388ft 0kts
02-Jul-20 08:01 33.306341 -111.668218 270 1388ft 0kts
02-Jul-20 08:02 33.306341 -111.668218 270 1388ft 0kts
02-Jul-20 08:03 33.306341 -111.668218 270 1388ft 0kts
02-Jul-20 08:04 33.306341 -111.668218 270 1388ft 0kts
02-Jul-20 08:05 33.306341 -111.668218 270 1388ft 0kts
02-Jul-20 08:06 33.306341 -111.668218 270 1388ft 0kts
02-Jul-20 08:08 33.306341 -111.668218 270 1388ft 0kts
02-Jul-20 08:09 33.306341 -111.668218 270 1388ft 0kts
02-Jul-20 08:10 33.306341 -111.668218 270 1388ft 0kts
02-Jul-20 08:11 33.306341 -111.668218 270 1388ft 0kts
02-Jul-20 08:12 33.306363 -111.667988 273 1388ft 2kts
02-Jul-20 08:13 33.306167 -111.667471 0 1388ft 1kts
02-Jul-20 08:14 33.306105 -111.667477 1 1388ft 0kts
02-Jul-20 08:15 33.306105 -111.667477 1 1388ft 0kts
02-Jul-20 08:16 33.306105 -111.667477 1 1388ft 0kts
02-Jul-20 08:17 33.306105 -111.667477 1 1388ft 0kts
02-Jul-20 08:18 33.309704 -111.667412 0 1388ft 26kts
02-Jul-20 08:19 33.316058 -111.673048 315 1388ft 32kts
02-Jul-20 08:20 33.317053 -111.673571 43 1388ft 0kts
02-Jul-20 08:21 33.317053 -111.673571 43 1388ft 0kts
02-Jul-20 08:22 33.317281 -111.673251 54 1388ft 8kts
02-Jul-20 08:23 33.299036 -111.651115 134 2314ft 174kts
02-Jul-20 08:24 33.262985 -111.607678 135 5351ft 186kts
02-Jul-20 08:24 33.268994 -111.563664 29 7635ft 208kts
02-Jul-20 08:25 33.329755 -111.567495 350 9876ft 241kts
02-Jul-20 08:27 33.410764 -111.598216 333 12665ft 293kts
02-Jul-20 08:27 33.475833 -111.631653 334 15091ft 317kts
02-Jul-20 08:28 33.559321 -111.673038 334 18095ft 335kts
02-Jul-20 08:30 33.661609 -111.723349 334 21579ft 345kts
02-Jul-20 08:30 33.735196 -111.759554 333 24003ft 343kts
02-Jul-20 08:31 33.821108 -111.801905 333 26745ft 330kts
02-Jul-20 08:32 33.905695 -111.843693 332 28919ft 327kts
02-Jul-20 08:33 33.989114 -111.884994 332 30740ft 328kts
02-Jul-20 08:34 34.075362 -111.927790 332 32004ft 343kts
02-Jul-20 08:35 34.173189 -111.944587 350 33312ft 359kts
02-Jul-20 08:36 34.273139 -111.955653 350 34276ft 373kts
02-Jul-20 08:37 34.382061 -111.967690 350 34244ft 414kts
02-Jul-20 08:38 34.501760 -111.980913 351 34234ft 448kts
02-Jul-20 08:39 34.629550 -111.995048 351 34232ft 475kts
02-Jul-20 08:40 34.761199 -112.009676 351 34241ft 479kts
02-Jul-20 08:41 34.894121 -112.024626 351 34241ft 479kts
02-Jul-20 08:42 35.026287 -112.039546 350 34302ft 477kts
02-Jul-20 08:43 35.158600 -112.054528 350 34306ft 475kts
02-Jul-20 08:44 35.289459 -112.069382 350 34294ft 474kts
02-Jul-20 08:45 35.420560 -112.083581 351 34299ft 475kts
02-Jul-20 08:46 35.552398 -112.096773 350 34311ft 475kts
02-Jul-20 08:47 35.683871 -112.112731 350 34321ft 475kts
02-Jul-20 08:48 35.815135 -112.128524 350 34322ft 475kts
02-Jul-20 08:49 35.946492 -112.144361 350 34319ft 475kts
02-Jul-20 08:50 36.078384 -112.156583 352 34316ft 476kts
02-Jul-20 08:51 36.211348 -112.168530 352 34312ft 476kts
02-Jul-20 08:52 36.343280 -112.180406 352 34311ft 476kts
02-Jul-20 08:53 36.475508 -112.192344 352 34312ft 476kts
02-Jul-20 08:54 36.607569 -112.204307 352 34255ft 476kts
02-Jul-20 08:55 36.739485 -112.216300 352 34241ft 477kts
02-Jul-20 08:56 36.871800 -112.228371 352 34244ft 477kts
02-Jul-20 08:57 37.003576 -112.240435 351 34243ft 477kts
02-Jul-20 08:58 37.136375 -112.252636 350 34239ft 477kts
02-Jul-20 08:59 37.268863 -112.264851 350 34258ft 477kts
02-Jul-20 09:00 37.400825 -112.277060 350 34313ft 477kts
02-Jul-20 09:01 37.532948 -112.289327 350 34335ft 477kts
02-Jul-20 09:02 37.665258 -112.301623 351 34334ft 477kts
02-Jul-20 09:03 37.798964 -112.288956 1 34338ft 485kts
02-Jul-20 09:04 37.933047 -112.270726 1 34332ft 485kts
02-Jul-20 09:05 38.066814 -112.252450 1 34329ft 485kts
02-Jul-20 09:06 38.201101 -112.234030 1 34328ft 484kts
02-Jul-20 09:07 38.334947 -112.215602 1 34264ft 484kts
02-Jul-20 09:08 38.468909 -112.197090 1 34236ft 484kts
02-Jul-20 09:09 38.602854 -112.178515 1 34230ft 485kts
02-Jul-20 09:10 38.737011 -112.159834 1 34121ft 485kts
02-Jul-20 09:11 38.871009 -112.141107 1 34132ft 486kts
02-Jul-20 09:12 39.005822 -112.122197 0 34105ft 488kts
02-Jul-20 09:13 39.138984 -112.103413 0 33154ft 481kts
02-Jul-20 09:14 39.257458 -112.086701 0 31564ft 465kts
02-Jul-20 09:15 39.384786 -112.068642 1 29710ft 458kts
02-Jul-20 09:16 39.511134 -112.050653 1 27717ft 455kts
02-Jul-20 09:17 39.635885 -112.032835 2 25692ft 448kts
02-Jul-20 09:18 39.757614 -112.015390 2 23987ft 435kts
02-Jul-20 09:19 39.872941 -111.998792 2 21173ft 403kts
02-Jul-20 09:20 39.983072 -111.982884 3 17312ft 394kts
02-Jul-20 09:21 40.089054 -111.967544 3 14042ft 371kts
02-Jul-20 09:22 40.185183 -111.953582 4 11860ft 328kts
02-Jul-20 09:23 40.272809 -111.940860 5 9454ft 309kts
02-Jul-20 09:24 40.337851 -111.969572 306 9007ft 224kts
02-Jul-20 09:25 40.394751 -111.976242 59 8979ft 231kts
02-Jul-20 09:26 40.403102 -111.895294 120 7778ft 222kts
02-Jul-20 09:27 40.361097 -111.850894 146 6661ft 189kts
02-Jul-20 09:28 40.318816 -111.811770 145 6310ft 185kts
02-Jul-20 09:29 40.277945 -111.774721 146 5655ft 171kts
02-Jul-20 09:30 40.238516 -111.739801 146 4753ft 171kts
02-Jul-20 09:31 40.217824 -111.721503 145 4506ft 23kts
02-Jul-20 09:32 40.211221 -111.715535 109 4506ft 9kts
02-Jul-20 09:33 40.216050 -111.717758 328 4506ft 28kts
02-Jul-20 09:34 40.218157 -111.718559 51 4506ft 0kts
02-Jul-20 09:35 40.218157 -111.718559 51 4506ft 0kts
02-Jul-20 09:36 40.218157 -111.718559 51 4506ft 0kts
02-Jul-20 09:37 40.218157 -111.718559 51 4506ft 0kts
02-Jul-20 09:38 40.218157 -111.718559 51 4506ft 0kts
02-Jul-20 09:39 40.218157 -111.718559 51 4506ft 0kts
02-Jul-20 09:40 40.218157 -111.718559 51 4506ft 0kts
02-Jul-20 09:41 40.218157 -111.718559 51 4506ft 0kts
02-Jul-20 09:42 40.218157 -111.718559 51 4506ft 0kts
02-Jul-20 09:43 40.218157 -111.718559 51 4506ft 0kts
02-Jul-20 09:44 40.218157 -111.718559 51 4506ft 0kts

Navigation Log

Ident Type
Flight plan parsing failed, navigation log unavailable